createdAt,value
2022-10-17T00:00:56.092Z,102105.28
2022-10-17T00:03:22.722Z,102114.00
2022-10-17T00:05:49.299Z,102117.88
2022-10-17T00:08:17.614Z,102115.50
2022-10-17T00:10:44.257Z,102114.06
2022-10-17T00:13:15.453Z,102114.44
2022-10-17T00:15:44.909Z,102123.44
2022-10-17T00:18:11.651Z,102120.06
2022-10-17T00:20:38.130Z,102127.91
2022-10-17T00:23:04.731Z,102131.16
2022-10-17T00:25:31.342Z,102131.50
2022-10-17T00:28:00.731Z,102132.28
2022-10-17T00:30:27.436Z,102135.38
2022-10-17T00:33:03.319Z,102134.38
2022-10-17T00:35:29.976Z,102131.50
2022-10-17T00:38:03.811Z,102132.28
2022-10-17T00:40:32.512Z,102133.25
2022-10-17T00:42:59.041Z,102141.94
2022-10-17T00:45:31.565Z,102138.50
2022-10-17T00:48:10.023Z,102142.47
2022-10-17T00:50:40.175Z,102139.81
2022-10-17T00:53:10.774Z,102142.47
2022-10-17T00:55:51.096Z,102145.63
2022-10-17T00:58:19.158Z,102141.75
2022-10-17T01:00:49.599Z,102144.97
2022-10-17T01:03:21.630Z,102139.16
2022-10-17T01:05:49.884Z,102145.16
2022-10-17T01:08:16.853Z,102140.13
2022-10-17T01:10:48.579Z,102143.06
2022-10-17T01:13:42.987Z,102139.31
2022-10-17T01:16:49.129Z,102136.13
2022-10-17T01:19:28.034Z,102131.38
2022-10-17T01:22:19.111Z,102137.19
2022-10-17T01:25:14.609Z,102141.41
2022-10-17T01:28:20.026Z,102136.34
2022-10-17T01:31:05.741Z,102132.56
2022-10-17T01:33:53.600Z,102135.59
2022-10-17T01:36:22.930Z,102134.78
2022-10-17T01:38:55.164Z,102131.03
2022-10-17T01:41:44.440Z,102131.66
2022-10-17T01:44:28.131Z,102133.75
2022-10-17T01:47:01.894Z,102127.53
2022-10-17T01:49:32.110Z,102136.34
2022-10-17T01:52:08.895Z,102131.19
2022-10-17T01:54:49.655Z,102135.28
2022-10-17T01:57:29.854Z,102135.09
2022-10-17T01:59:57.458Z,102134.25
2022-10-17T02:02:29.355Z,102128.75
2022-10-17T02:04:58.810Z,102127.28
2022-10-17T02:07:25.601Z,102133.63
2022-10-17T02:09:52.619Z,102126.53
2022-10-17T02:12:42.992Z,102130.28
2022-10-17T02:15:42.543Z,102131.97
2022-10-17T02:18:36.800Z,102132.88
2022-10-17T02:21:09.005Z,102134.53
2022-10-17T02:23:48.655Z,102124.63
2022-10-17T02:26:25.967Z,102135.47
2022-10-17T02:29:01.645Z,102134.81
2022-10-17T02:31:41.939Z,102120.75
2022-10-17T02:34:16.255Z,102122.59
2022-10-17T02:36:48.270Z,102123.81
2022-10-17T02:39:16.463Z,102121.97
2022-10-17T02:44:27.612Z,102113.47
2022-10-17T02:47:03.802Z,102115.16
2022-10-17T02:49:36.620Z,102121.41
2022-10-17T02:52:41.113Z,102120.03
2022-10-17T02:55:24.525Z,102114.50
2022-10-17T02:57:59.062Z,102127.56
2022-10-17T03:00:28.767Z,102126.56
2022-10-17T03:03:01.907Z,102131.88
2022-10-17T03:05:29.740Z,102134.81
2022-10-17T03:07:57.044Z,102135.56
2022-10-17T03:10:25.985Z,102136.84
2022-10-17T03:12:54.675Z,102137.50
2022-10-17T03:15:21.257Z,102139.69
2022-10-17T03:17:47.767Z,102135.75
2022-10-17T03:20:14.561Z,102140.72
2022-10-17T03:22:41.083Z,102140.41
2022-10-17T03:25:09.100Z,102137.97
2022-10-17T03:27:35.725Z,102141.63
2022-10-17T03:30:02.321Z,102143.81
2022-10-17T03:32:28.764Z,102147.59
2022-10-17T03:34:55.228Z,102148.22
2022-10-17T03:37:21.782Z,102153.72
2022-10-17T03:39:48.298Z,102156.59
2022-10-17T03:42:14.748Z,102156.41
2022-10-17T03:44:41.232Z,102158.28
2022-10-17T03:47:09.330Z,102167.44
2022-10-17T03:49:41.843Z,102157.31
2022-10-17T03:52:12.702Z,102165.94
2022-10-17T03:54:39.247Z,102162.72
2022-10-17T03:57:05.786Z,102169.53
2022-10-17T03:59:32.387Z,102167.97
2022-10-17T04:01:58.803Z,102170.72
2022-10-17T04:04:25.416Z,102177.09
2022-10-17T04:06:51.888Z,102172.09
2022-10-17T04:09:18.443Z,102174.22
2022-10-17T04:11:44.996Z,102172.38
2022-10-17T04:14:11.551Z,102178.78
2022-10-17T04:16:38.829Z,102184.94
2022-10-17T04:19:05.649Z,102190.84
2022-10-17T04:21:32.247Z,102188.50
2022-10-17T04:24:00.741Z,102190.66
2022-10-17T04:26:28.158Z,102199.00
2022-10-17T04:28:54.803Z,102193.41
2022-10-17T04:31:21.382Z,102193.31
2022-10-17T04:33:49.349Z,102195.91
2022-10-17T04:36:18.973Z,102191.38
2022-10-17T04:38:49.552Z,102194.16
2022-10-17T04:41:20.045Z,102203.03
2022-10-17T04:43:51.034Z,102208.53
2022-10-17T04:46:18.466Z,102208.47
2022-10-17T04:48:45.213Z,102200.00
2022-10-17T04:51:15.011Z,102206.72
2022-10-17T04:53:43.157Z,102206.06
2022-10-17T04:56:18.155Z,102209.88
2022-10-17T04:58:45.646Z,102205.94
2022-10-17T05:01:15.786Z,102210.56
2022-10-17T05:03:48.564Z,102214.63
2022-10-17T05:06:24.243Z,102219.53
2022-10-17T05:08:50.889Z,102224.25
2022-10-17T05:11:28.916Z,102227.91
2022-10-17T05:13:57.860Z,102231.34
2022-10-17T05:16:25.762Z,102229.63
2022-10-17T05:18:55.167Z,102235.69
2022-10-17T05:21:25.166Z,102238.84
2022-10-17T05:23:53.038Z,102242.56
2022-10-17T05:26:19.908Z,102250.56
2022-10-17T05:28:46.580Z,102253.88
2022-10-17T05:31:13.359Z,102249.84
2022-10-17T05:33:42.094Z,102246.94
2022-10-17T05:36:11.713Z,102256.94
2022-10-17T05:38:38.303Z,102256.00
2022-10-17T05:41:06.118Z,102255.53
2022-10-17T05:43:34.387Z,102259.31
2022-10-17T05:46:05.093Z,102264.47
2022-10-17T05:48:32.064Z,102264.34
2022-10-17T05:51:00.543Z,102269.19
2022-10-17T05:53:30.079Z,102272.34
2022-10-17T05:55:58.831Z,102278.00
2022-10-17T05:58:45.543Z,102279.38
2022-10-17T06:01:15.427Z,102283.94
2022-10-17T06:03:42.011Z,102299.19
2022-10-17T06:06:13.263Z,102293.41
2022-10-17T06:08:40.612Z,102296.38
2022-10-17T06:11:09.968Z,102305.69
2022-10-17T06:13:37.992Z,102307.28
2022-10-17T06:16:04.703Z,102317.38
2022-10-17T06:18:31.350Z,102320.72
2022-10-17T06:21:05.696Z,102331.53
2022-10-17T06:23:32.467Z,102319.97
2022-10-17T06:26:02.977Z,102326.44
2022-10-17T06:28:30.136Z,102322.44
2022-10-17T06:30:57.838Z,102322.81
2022-10-17T06:33:24.695Z,102328.16
2022-10-17T06:35:52.636Z,102335.41
2022-10-17T06:38:19.481Z,102334.88
2022-10-17T06:40:46.009Z,102340.81
2022-10-17T06:43:12.743Z,102342.59
2022-10-17T06:45:40.239Z,102333.81
2022-10-17T06:48:07.849Z,102351.94
2022-10-17T06:50:34.812Z,102348.56
2022-10-17T06:53:01.327Z,102353.56
2022-10-17T06:55:27.806Z,102347.03
2022-10-17T06:57:57.007Z,102354.13
2022-10-17T07:00:26.884Z,102360.22
2022-10-17T07:02:53.552Z,102357.97
2022-10-17T07:05:20.198Z,102362.97
2022-10-17T07:07:51.076Z,102365.16
2022-10-17T07:10:18.684Z,102367.63
2022-10-17T07:12:45.969Z,102366.06
2022-10-17T07:15:13.149Z,102371.19
2022-10-17T07:17:39.833Z,102364.28
2022-10-17T07:20:09.967Z,102365.41
2022-10-17T07:22:39.476Z,102371.16
2022-10-17T07:25:07.876Z,102365.94
2022-10-17T07:27:34.610Z,102364.75
2022-10-17T07:30:01.219Z,102370.56
2022-10-17T07:32:27.753Z,102367.44
2022-10-17T07:34:57.496Z,102362.31
2022-10-17T07:37:24.214Z,102362.97
2022-10-17T07:39:51.114Z,102359.16
2022-10-17T07:42:17.827Z,102359.59
2022-10-17T07:44:47.592Z,102352.81
2022-10-17T07:47:14.262Z,102368.06
2022-10-17T07:49:42.673Z,102363.56
2022-10-17T07:52:13.808Z,102367.59
2022-10-17T07:54:40.437Z,102375.66
2022-10-17T07:57:07.726Z,102369.75
2022-10-17T07:59:35.535Z,102371.00
2022-10-17T08:02:02.157Z,102377.03
2022-10-17T08:04:29.248Z,102385.00
2022-10-17T08:07:05.465Z,102371.66
2022-10-17T08:09:38.389Z,102373.75
2022-10-17T08:12:05.361Z,102383.00
2022-10-17T08:14:34.401Z,102382.63
2022-10-17T08:17:06.060Z,102380.09
2022-10-17T08:19:33.553Z,102380.91
2022-10-17T08:22:01.232Z,102382.78
2022-10-17T08:24:28.135Z,102376.78
2022-10-17T08:26:56.252Z,102373.28
2022-10-17T08:29:22.900Z,102380.50
2022-10-17T08:31:52.405Z,102379.22
2022-10-17T08:34:29.516Z,102369.75
2022-10-17T08:36:56.861Z,102370.56
2022-10-17T08:39:23.508Z,102370.31
2022-10-17T08:42:02.112Z,102366.38
2022-10-17T08:44:50.592Z,102369.22
2022-10-17T08:47:27.804Z,102376.72
2022-10-17T08:49:59.403Z,102372.78
2022-10-17T08:52:49.025Z,102371.19
2022-10-17T08:55:23.669Z,102369.63
2022-10-17T08:58:00.062Z,102366.66
2022-10-17T09:00:30.193Z,102368.22
2022-10-17T09:02:59.618Z,102373.44
2022-10-17T09:05:35.175Z,102379.22
2022-10-17T09:08:16.447Z,102371.19
2022-10-17T09:11:23.499Z,102373.50
2022-10-17T09:14:11.105Z,102368.81
2022-10-17T09:17:16.840Z,102364.47
2022-10-17T09:20:05.816Z,102369.59
2022-10-17T09:22:50.290Z,102371.19
2022-10-17T09:25:20.050Z,102370.81
2022-10-17T09:27:50.590Z,102370.38
2022-10-17T09:30:54.479Z,102375.94
2022-10-17T09:33:35.409Z,102375.78
2022-10-17T09:36:08.733Z,102375.38
2022-10-17T09:38:42.179Z,102375.00
2022-10-17T09:42:01.191Z,102374.53
2022-10-17T09:44:45.509Z,102379.31
2022-10-17T09:47:33.424Z,102378.66
2022-10-17T09:50:09.038Z,102377.22
2022-10-17T09:52:47.685Z,102372.56
2022-10-17T09:55:50.953Z,102371.09
2022-10-17T09:58:17.684Z,102377.66
2022-10-17T10:00:49.166Z,102377.94
2022-10-17T10:03:18.991Z,102375.84
2022-10-17T10:06:05.544Z,102370.91
2022-10-17T10:08:38.096Z,102372.16
2022-10-17T10:11:09.636Z,102373.63
2022-10-17T10:13:40.275Z,102382.47
2022-10-17T10:16:22.424Z,102383.69
2022-10-17T10:18:51.815Z,102376.69
2022-10-17T10:21:26.433Z,102380.00
2022-10-17T10:24:10.156Z,102380.25
2022-10-17T10:26:46.620Z,102377.34
2022-10-17T10:29:34.258Z,102369.75
2022-10-17T10:32:22.194Z,102377.75
2022-10-17T10:34:59.578Z,102376.09
2022-10-17T10:37:34.014Z,102370.09
2022-10-17T10:40:18.713Z,102367.88
2022-10-17T10:42:54.258Z,102372.00
2022-10-17T10:45:51.245Z,102366.84
2022-10-17T10:48:38.080Z,102368.88
2022-10-17T10:51:13.541Z,102369.28
2022-10-17T10:53:53.584Z,102366.47
2022-10-17T10:56:26.137Z,102363.59
2022-10-17T10:59:14.552Z,102360.69
2022-10-17T11:02:05.136Z,102363.34
2022-10-17T11:04:59.916Z,102352.84
2022-10-17T11:08:20.481Z,102355.06
2022-10-17T11:11:19.934Z,102357.56
2022-10-17T11:13:58.873Z,102358.59
2022-10-17T11:16:43.733Z,102351.56
2022-10-17T11:19:16.087Z,102355.25
2022-10-17T11:22:38.526Z,102358.19
2022-10-17T11:25:13.310Z,102352.00
2022-10-17T11:27:40.144Z,102350.72
2022-10-17T11:30:07.236Z,102351.31
2022-10-17T11:32:44.016Z,102352.75
2022-10-17T11:35:34.233Z,102346.31
2022-10-17T11:38:28.017Z,102345.72
2022-10-17T11:41:03.124Z,102339.13
2022-10-17T11:43:41.216Z,102346.19
2022-10-17T11:46:24.238Z,102341.00
2022-10-17T11:49:17.420Z,102337.06
2022-10-17T11:52:01.301Z,102324.22
2022-10-17T11:54:56.186Z,102326.28
2022-10-17T11:57:39.037Z,102319.94
2022-10-17T12:00:17.444Z,102325.13
2022-10-17T12:02:55.983Z,102325.16
2022-10-17T12:05:34.206Z,102330.19
2022-10-17T12:08:19.034Z,102320.59
2022-10-17T12:11:06.891Z,102322.75
2022-10-17T12:13:33.352Z,102310.63
2022-10-17T12:16:21.519Z,102311.69
2022-10-17T12:19:06.313Z,102301.69
2022-10-17T12:22:01.123Z,102297.59
2022-10-17T12:24:45.971Z,102297.88
2022-10-17T12:27:35.991Z,102296.94
2022-10-17T12:30:14.188Z,102300.16
2022-10-17T12:33:06.284Z,102299.13
2022-10-17T12:35:35.332Z,102297.53
2022-10-17T12:38:18.877Z,102299.38
2022-10-17T12:40:50.245Z,102293.13
2022-10-17T12:43:17.079Z,102289.53
2022-10-17T12:45:51.798Z,102299.31
2022-10-17T12:48:36.802Z,102295.66
2022-10-17T12:54:00.885Z,102293.09
2022-10-17T12:56:40.077Z,102295.00
2022-10-17T12:59:22.447Z,102285.63
2022-10-17T13:01:58.996Z,102287.59
2022-10-17T13:04:28.185Z,102296.06
2022-10-17T13:06:58.710Z,102291.38
2022-10-17T13:09:32.048Z,102286.66
2022-10-17T13:12:03.252Z,102284.28
2022-10-17T13:14:32.836Z,102280.84
2022-10-17T13:16:59.380Z,102280.69
2022-10-17T13:19:34.697Z,102284.13
2022-10-17T13:22:07.042Z,102282.72
2022-10-17T13:24:39.490Z,102286.88
2022-10-17T13:27:22.001Z,102287.13
2022-10-17T13:29:50.942Z,102277.47
2022-10-17T13:32:17.652Z,102285.31
2022-10-17T13:34:44.359Z,102281.91
2022-10-17T13:37:15.670Z,102277.34
2022-10-17T13:39:55.570Z,102278.84
2022-10-17T13:42:27.849Z,102283.88
2022-10-17T13:44:57.964Z,102271.88
2022-10-17T13:47:45.228Z,102277.00
2022-10-17T13:50:43.695Z,102268.03
2022-10-17T13:53:32.487Z,102274.69
2022-10-17T13:56:29.239Z,102267.25
2022-10-17T13:59:21.563Z,102268.09
2022-10-17T14:01:49.909Z,102268.88
2022-10-17T14:04:20.384Z,102271.28
2022-10-17T14:06:49.843Z,102272.59
2022-10-17T14:09:25.188Z,102265.59
2022-10-17T14:12:17.156Z,102263.13
2022-10-17T14:15:09.259Z,102273.06
2022-10-17T14:17:41.131Z,102269.56
2022-10-17T14:20:57.140Z,102266.22
2022-10-17T14:23:21.933Z,102261.50
2022-10-17T14:26:12.705Z,102260.28
2022-10-17T14:28:41.386Z,102260.50
2022-10-17T14:31:20.138Z,102259.53
2022-10-17T14:33:50.870Z,102260.28
2022-10-17T14:36:29.429Z,102261.59
2022-10-17T14:38:58.339Z,102266.00
2022-10-17T14:41:47.642Z,102258.41
2022-10-17T14:44:29.090Z,102259.50
2022-10-17T14:47:38.136Z,102261.63
2022-10-17T14:50:12.550Z,102259.47
2022-10-17T14:52:40.829Z,102252.50
2022-10-17T14:55:28.283Z,102260.13
2022-10-17T14:57:57.487Z,102252.94
2022-10-17T15:00:28.027Z,102244.50
2022-10-17T15:02:56.140Z,102250.06
2022-10-17T15:05:25.907Z,102242.97
2022-10-17T15:07:58.395Z,102247.38
2022-10-17T15:10:42.285Z,102245.09
2022-10-17T15:13:27.121Z,102245.94
2022-10-17T15:15:54.569Z,102244.13
2022-10-17T15:18:21.199Z,102248.47
2022-10-17T15:20:51.969Z,102245.38
2022-10-17T15:23:26.312Z,102248.47
2022-10-17T15:25:57.258Z,102238.38
2022-10-17T15:28:24.163Z,102242.91
2022-10-17T15:30:53.440Z,102254.88
2022-10-17T15:33:20.137Z,102252.13
2022-10-17T15:35:51.602Z,102255.41
2022-10-17T15:38:18.269Z,102248.63
2022-10-17T15:40:48.970Z,102251.16
2022-10-17T15:43:25.881Z,102258.34
2022-10-17T15:45:52.665Z,102253.59
2022-10-17T15:48:32.959Z,102257.31
2022-10-17T15:50:59.573Z,102253.38
2022-10-17T15:53:28.070Z,102249.06
2022-10-17T15:56:00.186Z,102250.31
2022-10-17T15:58:36.651Z,102248.69
2022-10-17T16:01:51.799Z,102246.00
2022-10-17T16:04:29.150Z,102244.81
2022-10-17T16:06:55.806Z,102247.50
2022-10-17T16:09:22.506Z,102246.69
2022-10-17T16:11:48.959Z,102250.81
2022-10-17T16:14:18.223Z,102253.53
2022-10-17T16:16:44.792Z,102257.25
2022-10-17T16:19:11.535Z,102255.03
2022-10-17T16:21:40.274Z,102259.13
2022-10-17T16:24:09.703Z,102259.97
2022-10-17T16:26:36.256Z,102258.72
2022-10-17T16:29:04.758Z,102254.00
2022-10-17T16:31:34.622Z,102254.03
2022-10-17T16:34:02.681Z,102250.88
2022-10-17T16:36:33.092Z,102256.06
2022-10-17T16:38:59.740Z,102258.75
2022-10-17T16:41:30.339Z,102261.00
2022-10-17T16:43:59.628Z,102263.50
2022-10-17T16:46:28.122Z,102267.19
2022-10-17T16:48:57.495Z,102268.03
2022-10-17T16:51:24.480Z,102269.06
2022-10-17T16:53:54.227Z,102262.66
2022-10-17T16:56:25.058Z,102273.16
2022-10-17T16:58:51.901Z,102270.72
2022-10-17T17:01:21.063Z,102276.28
2022-10-17T17:03:48.238Z,102270.72
2022-10-17T17:06:24.053Z,102271.13
2022-10-17T17:08:51.218Z,102267.41
2022-10-17T17:11:20.539Z,102270.88
2022-10-17T17:13:48.875Z,102272.53
2022-10-17T17:16:23.304Z,102278.31
2022-10-17T17:18:55.403Z,102266.97
2022-10-17T17:21:22.350Z,102271.72
2022-10-17T17:23:49.419Z,102273.78
2022-10-17T17:26:20.594Z,102275.66
2022-10-17T17:28:48.556Z,102275.84
2022-10-17T17:31:24.207Z,102274.38
2022-10-17T17:33:51.659Z,102276.22
2022-10-17T17:36:22.848Z,102276.44
2022-10-17T17:38:52.995Z,102271.69
2022-10-17T17:41:20.431Z,102289.16
2022-10-17T17:43:48.611Z,102276.69
2022-10-17T17:46:18.193Z,102280.56
2022-10-17T17:48:46.654Z,102280.56
2022-10-17T17:51:15.168Z,102287.75
2022-10-17T17:53:44.709Z,102287.97
2022-10-17T17:56:16.834Z,102283.81
2022-10-17T17:58:45.856Z,102284.44
2022-10-17T18:01:18.278Z,102292.81
2022-10-17T18:03:46.097Z,102294.44
2022-10-17T18:06:13.499Z,102286.19
2022-10-17T18:08:40.147Z,102292.97
2022-10-17T18:11:07.862Z,102297.13
2022-10-17T18:13:34.309Z,102289.25
2022-10-17T18:16:01.984Z,102294.38
2022-10-17T18:18:30.522Z,102294.13
2022-10-17T18:21:01.154Z,102293.72
2022-10-17T18:23:27.679Z,102295.16
2022-10-17T18:26:00.710Z,102297.78
2022-10-17T18:28:27.773Z,102293.19
2022-10-17T18:30:56.729Z,102294.41
2022-10-17T18:33:23.231Z,102293.16
2022-10-17T18:35:50.035Z,102298.88
2022-10-17T18:38:20.070Z,102294.97
2022-10-17T18:40:50.799Z,102294.31
2022-10-17T18:43:17.481Z,102297.38
2022-10-17T18:45:43.943Z,102297.59
2022-10-17T18:48:10.462Z,102295.47
2022-10-17T18:50:39.760Z,102290.53
2022-10-17T18:53:06.519Z,102291.56
2022-10-17T18:55:33.042Z,102287.88
2022-10-17T18:58:00.733Z,102293.78
2022-10-17T19:00:27.228Z,102291.09
2022-10-17T19:02:53.727Z,102297.47
2022-10-17T19:05:20.243Z,102297.03
2022-10-17T19:07:47.366Z,102298.63
2022-10-17T19:10:13.913Z,102298.19
2022-10-17T19:12:40.583Z,102296.72
2022-10-17T19:15:07.519Z,102297.94
2022-10-17T19:17:34.032Z,102293.44
2022-10-17T19:20:00.580Z,102296.03
2022-10-17T19:22:28.313Z,102288.59
2022-10-17T19:24:57.288Z,102295.31
2022-10-17T19:27:23.859Z,102302.91
2022-10-17T19:29:53.346Z,102307.41
2022-10-17T19:32:22.205Z,102303.09
2022-10-17T19:34:49.448Z,102305.34
2022-10-17T19:37:16.027Z,102303.28
2022-10-17T19:39:42.514Z,102303.75
2022-10-17T19:42:11.302Z,102304.28
2022-10-17T19:44:38.116Z,102303.09
2022-10-17T19:47:04.630Z,102308.00
2022-10-17T19:49:31.188Z,102298.56
2022-10-17T19:51:57.765Z,102311.88
2022-10-17T19:54:24.301Z,102312.63
2022-10-17T19:56:51.336Z,102311.66
2022-10-17T19:59:19.255Z,102320.00
2022-10-17T20:01:49.056Z,102317.88
2022-10-17T20:04:15.875Z,102314.38
2022-10-17T20:06:43.123Z,102317.22
2022-10-17T20:09:15.721Z,102322.34
2022-10-17T20:11:44.159Z,102320.69
2022-10-17T20:14:10.925Z,102321.56
2022-10-17T20:16:37.623Z,102324.94
2022-10-17T20:19:07.911Z,102325.81
2022-10-17T20:21:36.572Z,102326.03
2022-10-17T20:24:05.818Z,102322.75
2022-10-17T20:26:38.026Z,102325.88
2022-10-17T20:29:10.724Z,102335.94
2022-10-17T20:31:37.710Z,102335.22
2022-10-17T20:34:04.299Z,102340.22
2022-10-17T20:36:33.018Z,102333.63
2022-10-17T20:39:02.845Z,102334.50
2022-10-17T20:41:29.332Z,102335.00
2022-10-17T20:43:56.078Z,102340.78
2022-10-17T20:46:36.236Z,102336.59
2022-10-17T20:49:05.326Z,102342.47
2022-10-17T20:51:32.055Z,102340.56
2022-10-17T20:53:58.649Z,102336.88
2022-10-17T20:56:27.800Z,102340.94
2022-10-17T20:58:56.981Z,102341.88
2022-10-17T21:01:24.701Z,102345.09
2022-10-17T21:03:52.301Z,102348.84
2022-10-17T21:06:19.746Z,102341.56
2022-10-17T21:08:47.865Z,102344.88
2022-10-17T21:11:20.411Z,102342.09
2022-10-17T21:13:48.584Z,102346.94
2022-10-17T21:16:17.647Z,102340.19
2022-10-17T21:18:45.696Z,102344.88
2022-10-17T21:21:17.705Z,102339.53
2022-10-17T21:23:47.460Z,102341.91
2022-10-17T21:26:14.973Z,102338.13
2022-10-17T21:28:42.687Z,102332.47
2022-10-17T21:31:20.154Z,102327.84
2022-10-17T21:33:48.820Z,102321.97
2022-10-17T21:36:19.477Z,102333.81
2022-10-17T21:38:51.064Z,102335.91
2022-10-17T21:41:20.085Z,102328.84
2022-10-17T21:43:47.278Z,102335.72
2022-10-17T21:46:19.919Z,102337.75
2022-10-17T21:48:47.995Z,102336.81
2022-10-17T21:51:16.714Z,102344.28
2022-10-17T21:53:43.717Z,102335.44
2022-10-17T21:56:15.109Z,102343.34
2022-10-17T21:58:42.187Z,102336.22
2022-10-17T22:01:19.964Z,102345.59
2022-10-17T22:03:49.594Z,102342.34
2022-10-17T22:06:39.198Z,102339.22
2022-10-17T22:09:08.238Z,102344.56
2022-10-17T22:11:35.672Z,102343.13
2022-10-17T22:14:05.547Z,102332.41
2022-10-17T22:16:32.887Z,102338.78
2022-10-17T22:19:08.695Z,102335.19
2022-10-17T22:21:37.570Z,102336.09
2022-10-17T22:24:10.771Z,102342.03
2022-10-17T22:26:40.006Z,102330.03
2022-10-17T22:29:07.998Z,102332.59
2022-10-17T22:31:37.193Z,102334.84
2022-10-17T22:34:05.528Z,102328.19
2022-10-17T22:36:32.987Z,102339.13
2022-10-17T22:38:59.612Z,102337.03
2022-10-17T22:41:26.879Z,102341.00
2022-10-17T22:43:53.762Z,102341.38
2022-10-17T22:46:23.189Z,102347.91
2022-10-17T22:48:53.327Z,102341.50
2022-10-17T22:51:20.310Z,102337.16
2022-10-17T22:53:47.080Z,102339.47
2022-10-17T22:56:16.990Z,102333.25
2022-10-17T22:58:43.939Z,102339.06
2022-10-17T23:01:15.397Z,102330.16
2022-10-17T23:03:42.141Z,102334.13
2022-10-17T23:06:11.753Z,102322.91
2022-10-17T23:08:39.174Z,102327.66
2022-10-17T23:11:06.433Z,102325.00
2022-10-17T23:13:33.257Z,102329.97
2022-10-17T23:16:00.000Z,102323.34
2022-10-17T23:18:27.228Z,102322.34
2022-10-17T23:20:59.025Z,102323.09
2022-10-17T23:23:26.503Z,102316.28
2022-10-17T23:25:57.468Z,102308.09
2022-10-17T23:28:24.182Z,102316.28
2022-10-17T23:30:51.125Z,102322.22
2022-10-17T23:33:17.724Z,102316.28
2022-10-17T23:35:44.407Z,102314.91
2022-10-17T23:38:18.435Z,102322.19
2022-10-17T23:40:53.943Z,102321.94
2022-10-17T23:43:24.725Z,102319.44
2022-10-17T23:45:54.090Z,102320.19
2022-10-17T23:48:20.893Z,102314.28
2022-10-17T23:50:47.589Z,102314.63
2022-10-17T23:53:14.205Z,102316.94
2022-10-17T23:55:49.230Z,102314.19
2022-10-17T23:58:15.895Z,102308.94
